Time;durP1;ratioP1;P1;durP2;ratioP2;P2;SDS_P1;SDS_P2;PMS_P1;PMS_P2;Temp;Humidity;BMP_temperature;BMP_pressure;BME280_temperature;BME280_humidity;BME280_pressure;Samples;Min_cycle;Max_cycle;Signal;HPM_P1;HPM_P2
2023/09/26 00:00:01;;;;;;;11.52;10.32;;;;;;;;;;10216357;28;20642;-66
2023/09/26 00:04:58;;;;;;;12.38;10.23;;;;;;;;;;10220608;28;20058;-66
2023/09/26 00:09:55;;;;;;;11.20;10.05;;;;;;;;;;10205456;28;20522;-66
2023/09/26 00:14:52;;;;;;;10.48;9.52;;;;;;;;;;10216791;28;20413;-66
2023/09/26 00:19:48;;;;;;;10.73;9.82;;;;;;;;;;10222459;28;20045;-66
2023/09/26 00:24:45;;;;;;;10.85;9.75;;;;;;;;;;10217141;28;20065;-66
2023/09/26 00:29:41;;;;;;;10.85;9.95;;;;;;;;;;10210631;28;20511;-66
2023/09/26 00:34:38;;;;;;;11.13;10.05;;;;;;;;;;10214292;28;20510;-66
2023/09/26 00:39:36;;;;;;;10.85;9.75;;;;;;;;;;10217102;28;20060;-66
2023/09/26 00:44:32;;;;;;;11.10;10.10;;;;;;;;;;10216190;28;20060;-66
2023/09/26 00:49:30;;;;;;;12.68;9.70;;;;;;;;;;10217541;28;20041;-66
2023/09/26 00:54:27;;;;;;;10.57;9.52;;;;;;;;;;10212528;28;20045;-67
2023/09/26 00:59:24;;;;;;;10.32;9.02;;;;;;;;;;10219665;28;20510;-66
2023/09/26 01:04:22;;;;;;;10.05;9.05;;;;;;;;;;10214942;28;20449;-66
2023/09/26 01:09:18;;;;;;;10.57;9.57;;;;;;;;;;10226233;28;20465;-66
2023/09/26 01:14:15;;;;;;;12.48;9.48;;;;;;;;;;10221435;28;20073;-66
2023/09/26 01:19:11;;;;;;;10.13;9.15;;;;;;;;;;10208580;28;20058;-66
2023/09/26 01:24:07;;;;;;;10.57;9.55;;;;;;;;;;10214262;28;20505;-66
2023/09/26 01:29:04;;;;;;;10.77;9.77;;;;;;;;;;10224235;28;20049;-66
2023/09/26 01:34:02;;;;;;;9.75;8.82;;;;;;;;;;10218022;28;20065;-66
2023/09/26 01:38:58;;;;;;;10.55;9.45;;;;;;;;;;10215798;28;20042;-66
2023/09/26 01:43:55;;;;;;;10.13;9.25;;;;;;;;;;10212331;28;20536;-66
2023/09/26 01:48:51;;;;;;;11.00;9.95;;;;;;;;;;10213140;28;20193;-66
2023/09/26 01:53:48;;;;;;;9.80;8.90;;;;;;;;;;10209695;28;20736;-66
2023/09/26 01:58:45;;;;;;;10.77;9.77;;;;;;;;;;10224482;28;20654;-66
2023/09/26 02:03:41;;;;;;;11.55;10.00;;;;;;;;;;10212418;28;20591;-65
2023/09/26 02:08:38;;;;;;;11.68;10.48;;;;;;;;;;10208464;28;20045;-66
2023/09/26 02:13:35;;;;;;;11.13;10.02;;;;;;;;;;10211004;28;20641;-66
2023/09/26 02:18:32;;;;;;;11.15;10.10;;;;;;;;;;10211014;28;20045;-66
2023/09/26 02:23:28;;;;;;;10.20;9.40;;;;;;;;;;10202825;28;20100;-65
2023/09/26 02:28:24;;;;;;;10.85;9.85;;;;;;;;;;10204895;28;20053;-65
2023/09/26 02:33:21;;;;;;;10.90;9.77;;;;;;;;;;10222698;28;20528;-65
2023/09/26 02:38:17;;;;;;;12.07;10.45;;;;;;;;;;10217551;28;20041;-65
2023/09/26 02:43:13;;;;;;;10.43;9.43;;;;;;;;;;10221561;28;20472;-66
2023/09/26 02:48:10;;;;;;;10.95;9.98;;;;;;;;;;10222848;28;20144;-65
2023/09/26 02:53:07;;;;;;;10.82;9.73;;;;;;;;;;10221720;28;20536;-66
2023/09/26 02:58:04;;;;;;;10.90;10.00;;;;;;;;;;10228715;28;20053;-65
2023/09/26 03:03:00;;;;;;;11.85;10.75;;;;;;;;;;10219648;28;20072;-65
2023/09/26 03:07:57;;;;;;;11.80;10.52;;;;;;;;;;10210935;28;20050;-65
2023/09/26 03:12:53;;;;;;;11.90;10.80;;;;;;;;;;10205525;28;20088;-65
2023/09/26 03:17:49;;;;;;;12.13;10.95;;;;;;;;;;10226781;28;20069;-66
2023/09/26 03:22:46;;;;;;;12.05;11.00;;;;;;;;;;10219310;28;20156;-66
2023/09/26 03:27:46;;;;;;;11.30;10.30;;;;;;;;;;10232334;28;20054;-68
2023/09/26 03:32:43;;;;;;;12.00;10.73;;;;;;;;;;10209227;28;20095;-68
2023/09/26 03:37:40;;;;;;;12.15;10.95;;;;;;;;;;10217543;28;20421;-67
2023/09/26 03:42:36;;;;;;;12.48;11.48;;;;;;;;;;10214723;28;20560;-66
2023/09/26 03:47:32;;;;;;;12.32;11.05;;;;;;;;;;10200869;28;20457;-69
2023/09/26 03:52:29;;;;;;;12.27;11.27;;;;;;;;;;10218036;28;20517;-70
2023/09/26 03:57:25;;;;;;;12.13;11.10;;;;;;;;;;10202957;28;20107;-69
2023/09/26 04:02:22;;;;;;;12.50;11.43;;;;;;;;;;10221020;28;20060;-70
2023/09/26 04:07:19;;;;;;;12.65;11.55;;;;;;;;;;10215283;28;20046;-70
2023/09/26 04:12:15;;;;;;;12.73;11.63;;;;;;;;;;10222453;28;20046;-70
2023/09/26 04:17:11;;;;;;;12.10;11.10;;;;;;;;;;10224840;28;20525;-69
2023/09/26 04:22:08;;;;;;;13.98;12.60;;;;;;;;;;10222859;28;20053;-69
2023/09/26 04:27:04;;;;;;;13.02;11.82;;;;;;;;;;10214359;28;20045;-70
2023/09/26 04:32:01;;;;;;;13.82;12.55;;;;;;;;;;10219445;28;20453;-70
2023/09/26 04:36:57;;;;;;;13.88;12.63;;;;;;;;;;10212900;28;20037;-70
2023/09/26 04:41:54;;;;;;;13.45;12.07;;;;;;;;;;10220333;28;20636;-73
2023/09/26 04:46:51;;;;;;;13.93;12.82;;;;;;;;;;10203902;28;20041;-72
2023/09/26 04:51:48;;;;;;;14.75;12.05;;;;;;;;;;10207367;28;20057;-72
2023/09/26 04:56:46;;;;;;;14.30;13.13;;;;;;;;;;10220922;28;20385;-72
2023/09/26 05:01:45;;;;;;;15.75;12.77;;;;;;;;;;10201797;28;20049;-73
2023/09/26 05:06:41;;;;;;;13.88;12.45;;;;;;;;;;10220106;28;20041;-74
2023/09/26 05:11:38;;;;;;;13.65;12.55;;;;;;;;;;10221665;28;20107;-73
2023/09/26 05:16:34;;;;;;;13.93;12.82;;;;;;;;;;10224459;28;20045;-73
2023/09/26 05:21:31;;;;;;;14.85;13.55;;;;;;;;;;10211930;28;20132;-73
2023/09/26 05:26:27;;;;;;;14.48;13.07;;;;;;;;;;10216353;28;20652;-73
2023/09/26 05:31:23;;;;;;;14.73;13.45;;;;;;;;;;10219685;28;20087;-73
2023/09/26 05:36:20;;;;;;;14.93;13.60;;;;;;;;;;10222302;28;20045;-73
2023/09/26 05:41:16;;;;;;;17.65;13.10;;;;;;;;;;10218134;28;20477;-73
2023/09/26 05:46:12;;;;;;;14.32;13.10;;;;;;;;;;10215770;28;20049;-73
2023/09/26 05:51:09;;;;;;;16.27;14.77;;;;;;;;;;10216903;28;20050;-73
2023/09/26 05:56:06;;;;;;;15.30;14.00;;;;;;;;;;10226581;28;20042;-73
2023/09/26 06:01:07;;;;;;;16.25;14.75;;;;;;;;;;10221130;28;20048;-73
2023/09/26 06:06:03;;;;;;;14.50;13.30;;;;;;;;;;10235352;28;20064;-73
2023/09/26 06:11:00;;;;;;;15.68;14.27;;;;;;;;;;10218594;28;20460;-73
2023/09/26 06:15:57;;;;;;;16.10;14.60;;;;;;;;;;10224046;28;20041;-73
2023/09/26 06:20:53;;;;;;;16.67;15.18;;;;;;;;;;10222854;28;20129;-73
2023/09/26 06:25:57;;;;;;;16.77;15.20;;;;;;;;;;10229484;28;20737;-73
2023/09/26 06:30:54;;;;;;;17.67;16.17;;;;;;;;;;10224948;28;20049;-73
2023/09/26 06:35:50;;;;;;;16.85;15.35;;;;;;;;;;10220922;28;20505;-73
2023/09/26 06:40:46;;;;;;;18.17;16.67;;;;;;;;;;10217801;28;20077;-74
2023/09/26 06:45:43;;;;;;;17.60;16.00;;;;;;;;;;10224480;28;20519;-73
2023/09/26 06:50:43;;;;;;;17.98;16.27;;;;;;;;;;10211759;28;20073;-74
2023/09/26 06:55:39;;;;;;;15.77;14.48;;;;;;;;;;10222565;28;20053;-73
2023/09/26 07:00:37;;;;;;;22.50;15.70;;;;;;;;;;10219227;28;20050;-73
2023/09/26 07:05:34;;;;;;;17.25;15.68;;;;;;;;;;10212692;28;20982;-73
2023/09/26 07:10:35;;;;;;;16.65;15.35;;;;;;;;;;10216468;28;20057;-73
2023/09/26 07:15:32;;;;;;;17.42;15.43;;;;;;;;;;10223807;28;20504;-73
2023/09/26 07:20:28;;;;;;;16.38;14.75;;;;;;;;;;10225242;28;20050;-73
2023/09/26 07:25:25;;;;;;;17.85;16.02;;;;;;;;;;10211261;28;20042;-73
2023/09/26 07:30:21;;;;;;;15.82;14.32;;;;;;;;;;10210440;28;20486;-73
2023/09/26 07:35:18;;;;;;;15.60;14.10;;;;;;;;;;10214278;28;20128;-73
2023/09/26 07:40:14;;;;;;;16.13;14.77;;;;;;;;;;10224216;28;20069;-73
2023/09/26 07:45:11;;;;;;;17.70;16.17;;;;;;;;;;10223890;28;20048;-73
2023/09/26 07:50:08;;;;;;;18.73;16.67;;;;;;;;;;10227207;28;20121;-73
2023/09/26 07:55:06;;;;;;;17.92;16.17;;;;;;;;;;10199875;28;20065;-73
2023/09/26 08:00:11;;;;;;;23.75;16.35;;;;;;;;;;10212522;28;20045;-72
2023/09/26 08:05:07;;;;;;;16.40;14.63;;;;;;;;;;10207930;28;20077;-73
2023/09/26 08:10:04;;;;;;;18.45;15.05;;;;;;;;;;10209576;28;20054;-73
2023/09/26 08:15:00;;;;;;;16.63;14.80;;;;;;;;;;10214359;28;20057;-74
2023/09/26 08:19:57;;;;;;;14.75;13.25;;;;;;;;;;10220721;28;20038;-73
2023/09/26 08:24:54;;;;;;;14.38;13.07;;;;;;;;;;10212929;28;20060;-74
2023/09/26 08:29:51;;;;;;;13.15;11.95;;;;;;;;;;10211049;28;20056;-73
2023/09/26 08:34:47;;;;;;;12.85;11.65;;;;;;;;;;10218673;28;20042;-73
2023/09/26 08:39:43;;;;;;;12.50;11.23;;;;;;;;;;10230716;28;20478;-73
2023/09/26 08:44:40;;;;;;;12.80;11.60;;;;;;;;;;10229293;28;20060;-73
2023/09/26 08:49:36;;;;;;;12.32;11.00;;;;;;;;;;10218691;28;20065;-73
2023/09/26 08:54:33;;;;;;;11.45;9.75;;;;;;;;;;10208028;28;20055;-74
2023/09/26 08:59:31;;;;;;;13.32;10.35;;;;;;;;;;10207714;28;20735;-74
2023/09/26 09:04:27;;;;;;;12.45;9.93;;;;;;;;;;10204559;28;20045;-74
2023/09/26 09:09:24;;;;;;;12.55;9.30;;;;;;;;;;10215411;28;20057;-74
2023/09/26 09:14:32;;;;;;;9.75;8.73;;;;;;;;;;10213091;28;20057;-73
2023/09/26 09:19:45;;;;;;;9.18;8.32;;;;;;;;;;10222315;28;20038;-74
2023/09/26 09:24:41;;;;;;;9.60;8.70;;;;;;;;;;10204677;28;20100;-74
2023/09/26 09:29:37;;;;;;;8.95;8.02;;;;;;;;;;10206121;28;20636;-74
2023/09/26 09:34:34;;;;;;;9.88;8.57;;;;;;;;;;10225452;28;20099;-73
2023/09/26 09:39:31;;;;;;;16.30;10.25;;;;;;;;;;10219287;28;20037;-73
2023/09/26 09:44:27;;;;;;;9.40;8.60;;;;;;;;;;10216568;28;20049;-73
2023/09/26 09:49:25;;;;;;;11.05;10.00;;;;;;;;;;10213619;28;20112;-73
2023/09/26 09:54:24;;;;;;;11.75;10.57;;;;;;;;;;10223569;28;20052;-74
2023/09/26 09:59:22;;;;;;;10.85;9.80;;;;;;;;;;10221552;28;20529;-73
2023/09/26 10:04:19;;;;;;;10.93;9.70;;;;;;;;;;10229234;28;21291;-74
2023/09/26 10:09:20;;;;;;;10.05;8.98;;;;;;;;;;10222817;28;20047;-73
2023/09/26 10:14:23;;;;;;;10.07;9.25;;;;;;;;;;10211665;28;20524;-73
2023/09/26 10:19:21;;;;;;;10.15;9.25;;;;;;;;;;10227076;28;20112;-73
2023/09/26 10:25:04;;;;;;;9.27;8.48;;;;;;;;;;10224680;28;20057;-74
2023/09/26 10:30:01;;;;;;;10.85;9.85;;;;;;;;;;10218214;28;20555;-73
2023/09/26 10:34:58;;;;;;;10.18;9.18;;;;;;;;;;10229430;28;20053;-73
2023/09/26 10:39:54;;;;;;;9.38;8.57;;;;;;;;;;10217094;28;20049;-73
2023/09/26 10:44:51;;;;;;;10.43;9.50;;;;;;;;;;10214005;28;20120;-73
2023/09/26 10:49:47;;;;;;;10.30;9.40;;;;;;;;;;10220717;28;20052;-74
2023/09/26 10:54:44;;;;;;;10.60;9.50;;;;;;;;;;10220079;28;21249;-73
2023/09/26 10:59:40;;;;;;;11.38;9.98;;;;;;;;;;10214846;28;20103;-73
2023/09/26 11:04:36;;;;;;;10.45;9.23;;;;;;;;;;10219859;28;20453;-73
2023/09/26 11:09:37;;;;;;;10.77;8.88;;;;;;;;;;10218833;28;20050;-73
2023/09/26 11:14:34;;;;;;;9.70;9.00;;;;;;;;;;10211043;28;20107;-73
2023/09/26 11:19:30;;;;;;;10.43;9.48;;;;;;;;;;10227430;28;20049;-73
2023/09/26 11:24:30;;;;;;;10.93;9.75;;;;;;;;;;10220760;28;20061;-73
2023/09/26 11:29:27;;;;;;;10.07;9.20;;;;;;;;;;10227693;28;20141;-73
2023/09/26 11:34:24;;;;;;;10.73;9.73;;;;;;;;;;10209557;28;20041;-73
2023/09/26 11:39:21;;;;;;;10.35;9.30;;;;;;;;;;10221006;28;20072;-73
2023/09/26 11:44:18;;;;;;;9.85;8.70;;;;;;;;;;10221983;28;20049;-73
2023/09/26 11:49:15;;;;;;;8.98;8.27;;;;;;;;;;10225061;28;20053;-73
2023/09/26 11:54:12;;;;;;;10.65;9.65;;;;;;;;;;10206187;28;20065;-73
2023/09/26 11:59:09;;;;;;;8.88;8.18;;;;;;;;;;10214678;28;20100;-73
2023/09/26 12:04:05;;;;;;;8.98;8.18;;;;;;;;;;10206157;28;20042;-72
2023/09/26 12:09:04;;;;;;;9.30;8.30;;;;;;;;;;10210702;28;20053;-73
2023/09/26 12:14:00;;;;;;;8.52;7.82;;;;;;;;;;10209330;28;20049;-73
2023/09/26 12:18:57;;;;;;;9.07;8.20;;;;;;;;;;10221582;28;20059;-73
2023/09/26 12:23:53;;;;;;;9.63;8.73;;;;;;;;;;10220880;28;20456;-73
2023/09/26 12:28:50;;;;;;;8.52;7.72;;;;;;;;;;10213714;28;20460;-73
2023/09/26 12:33:46;;;;;;;9.10;8.35;;;;;;;;;;10227788;28;20048;-73
2023/09/26 12:38:42;;;;;;;8.73;8.02;;;;;;;;;;10219083;28;20050;-73
2023/09/26 12:43:40;;;;;;;8.82;8.10;;;;;;;;;;10217617;28;20545;-73
2023/09/26 12:48:37;;;;;;;9.23;8.35;;;;;;;;;;10213350;28;20049;-73
2023/09/26 12:53:33;;;;;;;8.88;8.00;;;;;;;;;;10224577;28;20099;-73
2023/09/26 12:58:30;;;;;;;8.57;7.80;;;;;;;;;;10218098;28;20551;-73
2023/09/26 13:03:26;;;;;;;9.63;7.47;;;;;;;;;;10211349;28;20140;-73
2023/09/26 13:08:23;;;;;;;8.57;7.80;;;;;;;;;;10222704;28;20163;-73
2023/09/26 13:13:19;;;;;;;8.18;7.38;;;;;;;;;;10218062;28;20052;-73
2023/09/26 13:18:15;;;;;;;8.50;7.70;;;;;;;;;;10233977;28;20045;-73
2023/09/26 13:23:12;;;;;;;9.43;7.40;;;;;;;;;;10218338;28;20091;-73
2023/09/26 13:28:09;;;;;;;8.52;7.55;;;;;;;;;;10213629;28;20093;-73
2023/09/26 13:33:06;;;;;;;8.10;7.47;;;;;;;;;;10214595;28;20052;-72
2023/09/26 13:38:02;;;;;;;8.35;7.65;;;;;;;;;;10219211;28;20041;-72
2023/09/26 13:43:00;;;;;;;8.00;7.38;;;;;;;;;;10210378;28;20049;-72
2023/09/26 13:47:57;;;;;;;7.65;7.10;;;;;;;;;;10223214;28;20469;-73
2023/09/26 13:52:53;;;;;;;7.70;7.00;;;;;;;;;;10210941;28;20119;-72
2023/09/26 13:57:51;;;;;;;7.95;7.32;;;;;;;;;;10209802;28;20058;-73
2023/09/26 14:02:50;;;;;;;8.63;7.28;;;;;;;;;;10218861;28;20071;-72
2023/09/26 14:07:47;;;;;;;7.60;6.90;;;;;;;;;;10219596;28;20518;-73
2023/09/26 14:12:43;;;;;;;7.97;7.20;;;;;;;;;;10214962;28;20129;-73
2023/09/26 14:17:40;;;;;;;9.43;7.05;;;;;;;;;;10209584;28;20049;-73
2023/09/26 14:22:36;;;;;;;7.63;7.03;;;;;;;;;;10198672;28;20073;-73
2023/09/26 14:27:37;;;;;;;7.70;7.05;;;;;;;;;;10208899;28;20093;-74
2023/09/26 14:32:37;;;;;;;7.57;6.83;;;;;;;;;;10214148;28;20104;-73
2023/09/26 14:37:35;;;;;;;7.63;7.00;;;;;;;;;;10213681;28;20037;-74
2023/09/26 14:42:31;;;;;;;7.97;7.28;;;;;;;;;;10210520;28;20046;-73
2023/09/26 14:47:27;;;;;;;7.43;6.93;;;;;;;;;;10211218;28;20041;-73
2023/09/26 14:52:24;;;;;;;11.82;8.82;;;;;;;;;;10214184;28;20053;-73
2023/09/26 14:57:20;;;;;;;7.50;6.85;;;;;;;;;;10222741;28;20129;-73
2023/09/26 15:02:17;;;;;;;7.72;7.03;;;;;;;;;;10210640;28;20073;-73
2023/09/26 15:07:13;;;;;;;10.35;7.18;;;;;;;;;;10212138;28;20049;-73
2023/09/26 15:12:11;;;;;;;7.32;6.72;;;;;;;;;;10229369;28;20220;-73
2023/09/26 15:17:08;;;;;;;7.22;6.63;;;;;;;;;;10219867;28;20037;-73
2023/09/26 15:22:05;;;;;;;8.15;7.43;;;;;;;;;;10210448;28;20124;-73
2023/09/26 15:27:01;;;;;;;7.93;7.18;;;;;;;;;;10227842;28;20131;-73
2023/09/26 15:31:57;;;;;;;8.45;7.65;;;;;;;;;;10203892;28;20054;-73
2023/09/26 15:36:54;;;;;;;7.80;7.20;;;;;;;;;;10212430;28;20092;-73
2023/09/26 15:41:50;;;;;;;9.02;7.07;;;;;;;;;;10220830;28;20121;-73
2023/09/26 15:46:47;;;;;;;8.15;7.45;;;;;;;;;;10218764;28;20052;-72
2023/09/26 15:51:43;;;;;;;8.52;7.72;;;;;;;;;;10212332;28;20046;-72
2023/09/26 15:56:39;;;;;;;7.30;6.63;;;;;;;;;;10210532;28;20037;-72
2023/09/26 16:01:37;;;;;;;8.15;7.55;;;;;;;;;;10216102;28;20049;-72
2023/09/26 16:06:33;;;;;;;8.27;7.55;;;;;;;;;;10219741;28;20050;-71
2023/09/26 16:11:29;;;;;;;8.35;7.65;;;;;;;;;;10218822;28;20042;-71
2023/09/26 16:16:26;;;;;;;9.32;7.97;;;;;;;;;;10222008;28;20036;-72
2023/09/26 16:21:22;;;;;;;8.18;7.38;;;;;;;;;;10215740;28;20053;-71
2023/09/26 16:26:19;;;;;;;11.13;7.93;;;;;;;;;;10218502;28;20049;-72
2023/09/26 16:31:15;;;;;;;8.65;7.75;;;;;;;;;;10215185;28;20088;-72
2023/09/26 16:36:12;;;;;;;8.80;7.97;;;;;;;;;;10204414;28;20054;-71
2023/09/26 16:41:18;;;;;;;9.98;8.43;;;;;;;;;;10210819;28;20103;-72
2023/09/26 16:46:14;;;;;;;8.77;7.97;;;;;;;;;;10218993;28;20677;-72
2023/09/26 16:51:11;;;;;;;8.70;7.45;;;;;;;;;;10231048;28;20762;-72
2023/09/26 16:56:07;;;;;;;8.80;8.00;;;;;;;;;;10215223;28;20073;-72
2023/09/26 17:01:10;;;;;;;8.90;8.27;;;;;;;;;;10224473;28;20057;-72
2023/09/26 17:06:07;;;;;;;10.30;9.38;;;;;;;;;;10215359;28;20128;-72
2023/09/26 17:11:04;;;;;;;13.02;9.30;;;;;;;;;;10210529;28;20048;-71
2023/09/26 17:16:00;;;;;;;10.60;9.70;;;;;;;;;;10214307;28;20095;-72
2023/09/26 17:20:58;;;;;;;10.60;9.70;;;;;;;;;;10212789;28;20474;-71
2023/09/26 17:25:55;;;;;;;11.07;10.18;;;;;;;;;;10213100;28;20080;-71
2023/09/26 17:30:53;;;;;;;10.90;10.00;;;;;;;;;;10216573;28;20044;-72
2023/09/26 17:35:50;;;;;;;11.48;10.48;;;;;;;;;;10212407;28;20073;-72
2023/09/26 17:40:51;;;;;;;11.63;10.52;;;;;;;;;;10217621;28;20045;-72
2023/09/26 17:45:48;;;;;;;12.43;10.97;;;;;;;;;;10206915;28;20050;-72
2023/09/26 17:50:44;;;;;;;12.25;10.55;;;;;;;;;;10213328;28;20489;-72
2023/09/26 17:55:41;;;;;;;10.82;9.82;;;;;;;;;;10213106;28;20577;-72
2023/09/26 18:00:38;;;;;;;12.13;11.00;;;;;;;;;;10216696;28;20453;-71
2023/09/26 18:05:34;;;;;;;13.35;11.25;;;;;;;;;;10213121;28;20497;-71
2023/09/26 18:10:31;;;;;;;12.48;11.30;;;;;;;;;;10207866;28;20528;-72
2023/09/26 18:15:27;;;;;;;11.75;10.73;;;;;;;;;;10228516;28;20519;-72
2023/09/26 18:20:23;;;;;;;12.38;11.18;;;;;;;;;;10216435;28;20041;-71
2023/09/26 18:25:20;;;;;;;13.30;11.85;;;;;;;;;;10226290;28;20478;-72
2023/09/26 18:30:17;;;;;;;16.08;14.50;;;;;;;;;;10218393;28;20049;-71
2023/09/26 18:35:14;;;;;;;15.93;13.52;;;;;;;;;;10219515;28;20042;-71
2023/09/26 18:40:10;;;;;;;15.45;13.70;;;;;;;;;;10210268;28;20049;-71
2023/09/26 18:45:07;;;;;;;15.73;13.98;;;;;;;;;;10216469;28;20049;-71
2023/09/26 18:50:03;;;;;;;14.50;13.20;;;;;;;;;;10222434;28;20049;-70
2023/09/26 18:55:00;;;;;;;14.75;13.35;;;;;;;;;;10231852;28;20674;-68
2023/09/26 18:59:56;;;;;;;13.98;12.70;;;;;;;;;;10223456;28;20050;-69
2023/09/26 19:04:52;;;;;;;14.82;13.43;;;;;;;;;;10214598;28;20053;-68
2023/09/26 19:09:50;;;;;;;16.45;14.07;;;;;;;;;;10214580;28;20041;-69
2023/09/26 19:14:47;;;;;;;15.27;13.73;;;;;;;;;;10222566;28;20042;-68
2023/09/26 19:19:43;;;;;;;15.38;13.88;;;;;;;;;;10214580;28;20042;-68
2023/09/26 19:24:39;;;;;;;15.40;13.88;;;;;;;;;;10220452;28;20046;-68
2023/09/26 19:29:35;;;;;;;16.58;14.60;;;;;;;;;;10219535;28;20073;-68
2023/09/26 19:34:32;;;;;;;16.45;14.25;;;;;;;;;;10223719;28;20672;-68
2023/09/26 19:39:28;;;;;;;15.40;13.90;;;;;;;;;;10225189;28;20041;-68
2023/09/26 19:44:25;;;;;;;15.88;14.27;;;;;;;;;;10217091;28;20417;-68
2023/09/26 19:49:21;;;;;;;15.32;13.82;;;;;;;;;;10206019;28;20468;-67
2023/09/26 19:54:18;;;;;;;16.52;14.98;;;;;;;;;;10217985;28;20809;-68
2023/09/26 19:59:14;;;;;;;15.35;13.63;;;;;;;;;;10218663;28;20344;-66
2023/09/26 20:04:10;;;;;;;15.90;14.35;;;;;;;;;;10209120;28;20862;-65
2023/09/26 20:09:08;;;;;;;15.57;14.18;;;;;;;;;;10216021;28;20092;-65
2023/09/26 20:14:04;;;;;;;16.05;14.45;;;;;;;;;;10223215;28;20038;-65
2023/09/26 20:19:01;;;;;;;15.68;14.00;;;;;;;;;;10219013;28;20045;-65
2023/09/26 20:23:58;;;;;;;15.55;14.02;;;;;;;;;;10225068;28;20057;-67
2023/09/26 20:28:55;;;;;;;16.15;14.65;;;;;;;;;;10229354;28;20504;-66
2023/09/26 20:33:51;;;;;;;14.93;13.57;;;;;;;;;;10222579;28;20041;-66
2023/09/26 20:38:47;;;;;;;16.25;14.60;;;;;;;;;;10225145;28;20049;-66
2023/09/26 20:43:44;;;;;;;15.75;14.15;;;;;;;;;;10227442;28;20049;-67
2023/09/26 20:48:40;;;;;;;15.02;13.40;;;;;;;;;;10216225;28;20647;-66
2023/09/26 20:53:36;;;;;;;17.23;15.45;;;;;;;;;;10218253;28;20524;-66
2023/09/26 20:58:34;;;;;;;16.50;14.45;;;;;;;;;;10220866;28;20045;-64
2023/09/26 21:03:30;;;;;;;15.77;13.90;;;;;;;;;;10216176;28;20673;-64
2023/09/26 21:08:26;;;;;;;16.50;13.95;;;;;;;;;;10219760;28;20042;-65
2023/09/26 21:13:23;;;;;;;15.73;14.23;;;;;;;;;;10217924;28;21438;-64
2023/09/26 21:18:19;;;;;;;16.50;15.00;;;;;;;;;;10229013;28;20079;-65
2023/09/26 21:23:16;;;;;;;15.65;14.18;;;;;;;;;;10225655;28;20572;-65
2023/09/26 21:28:12;;;;;;;17.30;15.65;;;;;;;;;;10221023;28;20072;-65
2023/09/26 21:33:09;;;;;;;15.85;14.27;;;;;;;;;;10224096;28;20198;-65
2023/09/26 21:38:05;;;;;;;16.38;14.68;;;;;;;;;;10225162;28;20520;-65
2023/09/26 21:43:02;;;;;;;16.35;14.77;;;;;;;;;;10223743;28;20041;-64
2023/09/26 21:47:58;;;;;;;17.10;15.27;;;;;;;;;;10234962;28;20045;-65
2023/09/26 21:52:55;;;;;;;17.15;15.23;;;;;;;;;;10228991;28;20523;-65
2023/09/26 21:57:51;;;;;;;15.43;14.10;;;;;;;;;;10231315;28;20041;-65
2023/09/26 22:02:51;;;;;;;15.35;13.68;;;;;;;;;;10232508;28;20509;-65
2023/09/26 22:07:48;;;;;;;15.30;13.90;;;;;;;;;;10232841;28;20501;-65
2023/09/26 22:12:44;;;;;;;16.30;14.82;;;;;;;;;;10234944;28;20041;-65
2023/09/26 22:17:41;;;;;;;16.58;14.75;;;;;;;;;;10229570;28;20049;-65
2023/09/26 22:22:38;;;;;;;15.98;14.45;;;;;;;;;;10233055;28;20099;-65
2023/09/26 22:27:34;;;;;;;17.30;15.50;;;;;;;;;;10230171;28;20053;-65
2023/09/26 22:32:31;;;;;;;15.82;14.18;;;;;;;;;;10224945;28;20080;-65
2023/09/26 22:37:27;;;;;;;18.45;14.98;;;;;;;;;;10231795;28;20053;-65
2023/09/26 22:42:24;;;;;;;16.13;14.52;;;;;;;;;;10232563;28;20049;-64
2023/09/26 22:47:20;;;;;;;15.50;14.07;;;;;;;;;;10232136;28;20413;-64
2023/09/26 22:52:17;;;;;;;16.08;13.65;;;;;;;;;;10232592;28;20049;-66
2023/09/26 22:57:13;;;;;;;15.25;13.85;;;;;;;;;;10229516;28;20540;-67
2023/09/26 23:02:09;;;;;;;16.52;14.80;;;;;;;;;;10232407;28;20041;-67
2023/09/26 23:07:06;;;;;;;17.27;15.48;;;;;;;;;;10222313;28;20045;-66
2023/09/26 23:12:03;;;;;;;16.65;15.25;;;;;;;;;;10225756;28;20533;-65
2023/09/26 23:16:59;;;;;;;16.63;14.77;;;;;;;;;;10233371;28;20068;-66
2023/09/26 23:21:56;;;;;;;16.70;14.95;;;;;;;;;;10229289;28;20049;-66
2023/09/26 23:26:53;;;;;;;16.40;14.95;;;;;;;;;;10227032;28;20123;-65
2023/09/26 23:31:50;;;;;;;16.05;14.75;;;;;;;;;;10222003;28;20056;-66
2023/09/26 23:36:46;;;;;;;17.25;15.55;;;;;;;;;;10229277;28;20048;-66
2023/09/26 23:41:43;;;;;;;16.95;15.55;;;;;;;;;;10226553;28;20705;-65
2023/09/26 23:46:40;;;;;;;17.08;15.65;;;;;;;;;;10226753;28;20045;-65
2023/09/26 23:51:37;;;;;;;17.02;15.60;;;;;;;;;;10226583;28;20555;-67
2023/09/26 23:56:33;;;;;;;15.30;13.85;;;;;;;;;;10221772;28;20511;-66
